sensor_id;sensor_type;location;lat;lon;timestamp;pressure;altitude;pressure_sealevel;temperature;humidity
67430;BME280;54298;52.076;5.264;2023-08-07T00:00:38;101197.0;;;14.59;95.08
67430;BME280;54298;52.076;5.264;2023-08-07T00:02:15;101200.0;;;14.42;95.7
67430;BME280;54298;52.076;5.264;2023-08-07T00:05:27;101201.0;;;14.63;94.96
67430;BME280;54298;52.076;5.264;2023-08-07T00:07:04;101203.0;;;14.68;95.28
67430;BME280;54298;52.076;5.264;2023-08-07T00:08:40;101203.0;;;14.48;95.85
67430;BME280;54298;52.076;5.264;2023-08-07T00:11:52;101200.0;;;14.43;96.63
67430;BME280;54298;52.076;5.264;2023-08-07T00:13:28;101205.0;;;14.56;95.7
67430;BME280;54298;52.076;5.264;2023-08-07T00:15:05;101207.0;;;14.61;95.71
67430;BME280;54298;52.076;5.264;2023-08-07T00:16:42;101211.0;;;14.51;95.79
67430;BME280;54298;52.076;5.264;2023-08-07T00:19:55;101211.0;;;14.64;95.46
67430;BME280;54298;52.076;5.264;2023-08-07T00:21:31;101207.0;;;14.6;95.61
67430;BME280;54298;52.076;5.264;2023-08-07T00:23:07;101203.0;;;14.56;96.03
67430;BME280;54298;52.076;5.264;2023-08-07T00:26:19;101200.0;;;14.6;95.65
67430;BME280;54298;52.076;5.264;2023-08-07T00:27:56;101202.0;;;14.67;94.98
67430;BME280;54298;52.076;5.264;2023-08-07T00:29:33;101201.0;;;14.72;94.54
67430;BME280;54298;52.076;5.264;2023-08-07T00:32:45;101206.0;;;14.61;95.18
67430;BME280;54298;52.076;5.264;2023-08-07T00:34:21;101202.0;;;14.74;94.4
67430;BME280;54298;52.076;5.264;2023-08-07T00:35:57;101207.0;;;14.86;93.99
67430;BME280;54298;52.076;5.264;2023-08-07T00:37:33;101205.0;;;14.77;94.56
67430;BME280;54298;52.076;5.264;2023-08-07T00:40:45;101205.0;;;14.85;94.16
67430;BME280;54298;52.076;5.264;2023-08-07T00:42:21;101206.0;;;14.87;93.72
67430;BME280;54298;52.076;5.264;2023-08-07T00:43:57;101209.0;;;14.87;93.63
67430;BME280;54298;52.076;5.264;2023-08-07T00:47:16;101205.0;;;14.99;92.97
67430;BME280;54298;52.076;5.264;2023-08-07T00:48:53;101209.0;;;14.83;93.63
67430;BME280;54298;52.076;5.264;2023-08-07T00:50:29;101203.0;;;14.94;93.34
67430;BME280;54298;52.076;5.264;2023-08-07T00:53:43;101202.0;;;14.98;93.36
67430;BME280;54298;52.076;5.264;2023-08-07T00:55:19;101203.0;;;14.91;93.38
67430;BME280;54298;52.076;5.264;2023-08-07T00:56:57;101207.0;;;14.94;92.74
67430;BME280;54298;52.076;5.264;2023-08-07T00:58:36;101201.0;;;14.91;92.64
67430;BME280;54298;52.076;5.264;2023-08-07T01:01:51;101196.0;;;14.95;92.27
67430;BME280;54298;52.076;5.264;2023-08-07T01:03:28;101195.0;;;14.93;92.31
67430;BME280;54298;52.076;5.264;2023-08-07T01:05:04;101197.0;;;14.76;93.53
67430;BME280;54298;52.076;5.264;2023-08-07T01:08:17;101196.0;;;14.81;92.14
67430;BME280;54298;52.076;5.264;2023-08-07T01:09:53;101199.0;;;14.83;91.32
67430;BME280;54298;52.076;5.264;2023-08-07T01:11:34;101195.0;;;14.84;90.91
67430;BME280;54298;52.076;5.264;2023-08-07T01:13:16;101195.0;;;14.91;89.89
67430;BME280;54298;52.076;5.264;2023-08-07T01:16:48;101192.0;;;14.88;90.08
67430;BME280;54298;52.076;5.264;2023-08-07T01:18:26;101196.0;;;14.82;89.53
67430;BME280;54298;52.076;5.264;2023-08-07T01:20:05;101200.0;;;14.67;90.28
67430;BME280;54298;52.076;5.264;2023-08-07T01:21:44;101195.0;;;14.67;90.16
67430;BME280;54298;52.076;5.264;2023-08-07T01:24:59;101199.0;;;14.65;90.43
67430;BME280;54298;52.076;5.264;2023-08-07T01:28:17;101199.0;;;14.83;89.35
67430;BME280;54298;52.076;5.264;2023-08-07T01:30:08;101203.0;;;14.85;89.72
67430;BME280;54298;52.076;5.264;2023-08-07T01:33:33;101203.0;;;14.84;89.49
67430;BME280;54298;52.076;5.264;2023-08-07T01:35:12;101209.0;;;14.82;89.17
67430;BME280;54298;52.076;5.264;2023-08-07T01:36:51;101215.0;;;14.84;88.57
67430;BME280;54298;52.076;5.264;2023-08-07T01:38:29;101206.0;;;14.92;88.99
67430;BME280;54298;52.076;5.264;2023-08-07T01:41:44;101216.0;;;14.83;88.78
67430;BME280;54298;52.076;5.264;2023-08-07T01:43:21;101215.0;;;14.88;88.34
67430;BME280;54298;52.076;5.264;2023-08-07T01:44:56;101223.0;;;14.71;87.85
67430;BME280;54298;52.076;5.264;2023-08-07T01:48:09;101216.0;;;14.67;88.37
67430;BME280;54298;52.076;5.264;2023-08-07T01:49:45;101215.0;;;14.65;88.62
67430;BME280;54298;52.076;5.264;2023-08-07T01:51:21;101217.0;;;14.75;88.29
67430;BME280;54298;52.076;5.264;2023-08-07T01:52:57;101217.0;;;14.84;87.97
67430;BME280;54298;52.076;5.264;2023-08-07T01:56:09;101216.0;;;14.85;88.16
67430;BME280;54298;52.076;5.264;2023-08-07T01:57:45;101221.0;;;14.82;88.27
67430;BME280;54298;52.076;5.264;2023-08-07T01:59:21;101224.0;;;14.82;87.84
67430;BME280;54298;52.076;5.264;2023-08-07T02:02:34;101225.0;;;14.8;88.32
67430;BME280;54298;52.076;5.264;2023-08-07T02:04:10;101225.0;;;14.88;87.81
67430;BME280;54298;52.076;5.264;2023-08-07T02:05:46;101226.0;;;14.83;88.38
67430;BME280;54298;52.076;5.264;2023-08-07T02:08:58;101223.0;;;14.81;87.85
67430;BME280;54298;52.076;5.264;2023-08-07T02:10:34;101225.0;;;14.95;87.53
67430;BME280;54298;52.076;5.264;2023-08-07T02:12:10;101221.0;;;14.94;87.73
67430;BME280;54298;52.076;5.264;2023-08-07T02:13:46;101218.0;;;14.95;87.14
67430;BME280;54298;52.076;5.264;2023-08-07T02:16:59;101222.0;;;14.96;87.2
67430;BME280;54298;52.076;5.264;2023-08-07T02:18:34;101219.0;;;14.91;87.58
67430;BME280;54298;52.076;5.264;2023-08-07T02:20:11;101221.0;;;15.0;86.92
67430;BME280;54298;52.076;5.264;2023-08-07T02:23:23;101224.0;;;14.94;86.76
67430;BME280;54298;52.076;5.264;2023-08-07T02:24:59;101223.0;;;15.04;86.58
67430;BME280;54298;52.076;5.264;2023-08-07T02:26:35;101227.0;;;15.07;85.85
67430;BME280;54298;52.076;5.264;2023-08-07T02:29:47;101231.0;;;15.02;86.05
67430;BME280;54298;52.076;5.264;2023-08-07T02:31:23;101230.0;;;15.03;86.78
67430;BME280;54298;52.076;5.264;2023-08-07T02:33:00;101223.0;;;15.05;87.09
67430;BME280;54298;52.076;5.264;2023-08-07T02:36:12;101220.0;;;15.12;86.96
67430;BME280;54298;52.076;5.264;2023-08-07T02:37:48;101224.0;;;15.09;86.62
67430;BME280;54298;52.076;5.264;2023-08-07T02:39:24;101218.0;;;15.13;86.0
67430;BME280;54298;52.076;5.264;2023-08-07T02:41:01;101224.0;;;14.97;85.99
67430;BME280;54298;52.076;5.264;2023-08-07T02:44:13;101224.0;;;15.07;86.47
67430;BME280;54298;52.076;5.264;2023-08-07T02:45:49;101224.0;;;15.04;85.86
67430;BME280;54298;52.076;5.264;2023-08-07T02:47:25;101222.0;;;15.05;85.93
67430;BME280;54298;52.076;5.264;2023-08-07T02:50:38;101221.0;;;15.08;86.36
67430;BME280;54298;52.076;5.264;2023-08-07T02:52:14;101216.0;;;15.04;86.47
67430;BME280;54298;52.076;5.264;2023-08-07T02:53:50;101221.0;;;15.14;86.81
67430;BME280;54298;52.076;5.264;2023-08-07T02:57:02;101220.0;;;15.23;86.24
67430;BME280;54298;52.076;5.264;2023-08-07T02:58:38;101225.0;;;15.06;86.91
67430;BME280;54298;52.076;5.264;2023-08-07T03:00:14;101231.0;;;15.13;87.92
67430;BME280;54298;52.076;5.264;2023-08-07T03:03:26;101233.0;;;14.86;88.61
67430;BME280;54298;52.076;5.264;2023-08-07T03:05:03;101239.0;;;15.05;88.07
67430;BME280;54298;52.076;5.264;2023-08-07T03:06:40;101242.0;;;14.85;89.18
67430;BME280;54298;52.076;5.264;2023-08-07T03:08:16;101246.0;;;14.79;90.16
67430;BME280;54298;52.076;5.264;2023-08-07T03:11:29;101241.0;;;14.89;89.93
67430;BME280;54298;52.076;5.264;2023-08-07T03:13:05;101244.0;;;14.79;90.87
67430;BME280;54298;52.076;5.264;2023-08-07T03:14:41;101241.0;;;14.96;90.63
67430;BME280;54298;52.076;5.264;2023-08-07T03:17:54;101243.0;;;14.85;91.74
67430;BME280;54298;52.076;5.264;2023-08-07T03:19:30;101240.0;;;14.99;91.01
67430;BME280;54298;52.076;5.264;2023-08-07T03:21:06;101237.0;;;15.0;90.92
67430;BME280;54298;52.076;5.264;2023-08-07T03:24:18;101245.0;;;14.94;91.8
67430;BME280;54298;52.076;5.264;2023-08-07T03:26:02;101241.0;;;14.92;92.19
67430;BME280;54298;52.076;5.264;2023-08-07T03:27:38;101239.0;;;14.91;92.06
67430;BME280;54298;52.076;5.264;2023-08-07T03:29:14;101238.0;;;14.93;92.45
67430;BME280;54298;52.076;5.264;2023-08-07T03:32:27;101233.0;;;14.76;93.13
67430;BME280;54298;52.076;5.264;2023-08-07T03:34:03;101236.0;;;14.67;93.94
67430;BME280;54298;52.076;5.264;2023-08-07T03:35:39;101241.0;;;14.73;93.81
67430;BME280;54298;52.076;5.264;2023-08-07T03:38:52;101240.0;;;14.82;93.72
67430;BME280;54298;52.076;5.264;2023-08-07T03:40:28;101238.0;;;14.7;94.39
67430;BME280;54298;52.076;5.264;2023-08-07T03:42:04;101234.0;;;14.64;94.62
67430;BME280;54298;52.076;5.264;2023-08-07T03:45:16;101232.0;;;14.64;94.68
67430;BME280;54298;52.076;5.264;2023-08-07T03:46:52;101234.0;;;14.61;94.8
67430;BME280;54298;52.076;5.264;2023-08-07T03:48:29;101237.0;;;14.59;95.08
67430;BME280;54298;52.076;5.264;2023-08-07T03:50:06;101231.0;;;14.56;95.05
67430;BME280;54298;52.076;5.264;2023-08-07T03:53:18;101231.0;;;14.71;94.55
67430;BME280;54298;52.076;5.264;2023-08-07T03:54:54;101232.0;;;14.71;94.52
67430;BME280;54298;52.076;5.264;2023-08-07T03:56:30;101234.0;;;14.73;94.44
67430;BME280;54298;52.076;5.264;2023-08-07T03:59:42;101230.0;;;14.71;94.51
67430;BME280;54298;52.076;5.264;2023-08-07T04:01:18;101230.0;;;14.77;94.37
67430;BME280;54298;52.076;5.264;2023-08-07T04:02:54;101233.0;;;14.76;94.27
67430;BME280;54298;52.076;5.264;2023-08-07T04:06:07;101230.0;;;14.77;94.62
67430;BME280;54298;52.076;5.264;2023-08-07T04:07:43;101233.0;;;14.76;94.89
67430;BME280;54298;52.076;5.264;2023-08-07T04:09:19;101230.0;;;14.62;95.59
67430;BME280;54298;52.076;5.264;2023-08-07T04:10:59;101230.0;;;14.76;94.73
67430;BME280;54298;52.076;5.264;2023-08-07T04:14:12;101228.0;;;14.71;95.07
67430;BME280;54298;52.076;5.264;2023-08-07T04:15:48;101234.0;;;14.74;95.24
67430;BME280;54298;52.076;5.264;2023-08-07T04:17:24;101235.0;;;14.79;95.3
67430;BME280;54298;52.076;5.264;2023-08-07T04:20:37;101235.0;;;14.71;95.0
67430;BME280;54298;52.076;5.264;2023-08-07T04:22:13;101235.0;;;14.86;94.61
67430;BME280;54298;52.076;5.264;2023-08-07T04:23:49;101235.0;;;14.77;94.6
67430;BME280;54298;52.076;5.264;2023-08-07T04:27:01;101237.0;;;14.81;94.45
67430;BME280;54298;52.076;5.264;2023-08-07T04:28:37;101230.0;;;14.78;94.12
67430;BME280;54298;52.076;5.264;2023-08-07T04:30:13;101240.0;;;14.89;93.72
67430;BME280;54298;52.076;5.264;2023-08-07T04:31:49;101234.0;;;14.82;93.94
67430;BME280;54298;52.076;5.264;2023-08-07T04:35:02;101239.0;;;14.91;93.3
67430;BME280;54298;52.076;5.264;2023-08-07T04:36:38;101235.0;;;15.02;92.87
67430;BME280;54298;52.076;5.264;2023-08-07T04:38:14;101240.0;;;14.97;92.81
67430;BME280;54298;52.076;5.264;2023-08-07T04:41:26;101245.0;;;14.98;92.45
67430;BME280;54298;52.076;5.264;2023-08-07T04:43:03;101247.0;;;15.03;92.1
67430;BME280;54298;52.076;5.264;2023-08-07T04:44:39;101252.0;;;15.08;91.44
67430;BME280;54298;52.076;5.264;2023-08-07T04:47:51;101253.0;;;15.09;91.38
67430;BME280;54298;52.076;5.264;2023-08-07T04:49:27;101258.0;;;14.94;91.36
67430;BME280;54298;52.076;5.264;2023-08-07T04:51:03;101259.0;;;14.99;91.64
67430;BME280;54298;52.076;5.264;2023-08-07T04:54:16;101262.0;;;14.97;91.4
67430;BME280;54298;52.076;5.264;2023-08-07T04:55:52;101260.0;;;15.1;90.96
67430;BME280;54298;52.076;5.264;2023-08-07T04:57:28;101265.0;;;15.15;90.9
67430;BME280;54298;52.076;5.264;2023-08-07T04:59:04;101265.0;;;15.11;90.49
67430;BME280;54298;52.076;5.264;2023-08-07T05:02:16;101267.0;;;15.06;90.87
67430;BME280;54298;52.076;5.264;2023-08-07T05:03:52;101264.0;;;15.15;91.2
67430;BME280;54298;52.076;5.264;2023-08-07T05:05:28;101264.0;;;14.98;91.39
67430;BME280;54298;52.076;5.264;2023-08-07T05:08:41;101257.0;;;15.03;91.74
67430;BME280;54298;52.076;5.264;2023-08-07T05:10:17;101264.0;;;15.22;90.41
67430;BME280;54298;52.076;5.264;2023-08-07T05:11:53;101271.0;;;15.15;90.55
67430;BME280;54298;52.076;5.264;2023-08-07T05:15:06;101270.0;;;15.01;90.81
67430;BME280;54298;52.076;5.264;2023-08-07T05:16:42;101272.0;;;15.07;90.4
67430;BME280;54298;52.076;5.264;2023-08-07T05:18:18;101272.0;;;15.09;90.71
67430;BME280;54298;52.076;5.264;2023-08-07T05:21:30;101277.0;;;15.08;90.32
67430;BME280;54298;52.076;5.264;2023-08-07T05:23:07;101273.0;;;15.1;89.96
67430;BME280;54298;52.076;5.264;2023-08-07T05:24:44;101284.0;;;15.15;89.75
67430;BME280;54298;52.076;5.264;2023-08-07T05:26:20;101287.0;;;15.1;90.01
67430;BME280;54298;52.076;5.264;2023-08-07T05:29:32;101287.0;;;15.25;89.52
67430;BME280;54298;52.076;5.264;2023-08-07T05:31:08;101293.0;;;15.34;89.28
67430;BME280;54298;52.076;5.264;2023-08-07T05:32:44;101295.0;;;15.32;89.36
67430;BME280;54298;52.076;5.264;2023-08-07T05:35:56;101299.0;;;15.28;89.22
67430;BME280;54298;52.076;5.264;2023-08-07T05:37:33;101296.0;;;15.09;90.54
67430;BME280;54298;52.076;5.264;2023-08-07T05:39:10;101298.0;;;15.25;90.29
67430;BME280;54298;52.076;5.264;2023-08-07T05:42:22;101292.0;;;15.38;89.39
67430;BME280;54298;52.076;5.264;2023-08-07T05:43:58;101305.0;;;15.46;89.04
67430;BME280;54298;52.076;5.264;2023-08-07T05:45:34;101316.0;;;15.33;89.48
67430;BME280;54298;52.076;5.264;2023-08-07T05:47:10;101326.0;;;15.24;90.42
67430;BME280;54298;52.076;5.264;2023-08-07T05:50:22;101317.0;;;15.26;90.45
67430;BME280;54298;52.076;5.264;2023-08-07T05:51:58;101324.0;;;15.28;90.48
67430;BME280;54298;52.076;5.264;2023-08-07T05:53:35;101330.0;;;15.04;91.41
67430;BME280;54298;52.076;5.264;2023-08-07T05:56:47;101330.0;;;15.21;91.28
67430;BME280;54298;52.076;5.264;2023-08-07T05:58:23;101333.0;;;15.34;90.79
67430;BME280;54298;52.076;5.264;2023-08-07T05:59:59;101330.0;;;15.35;90.79
67430;BME280;54298;52.076;5.264;2023-08-07T06:03:11;101330.0;;;15.36;90.53
67430;BME280;54298;52.076;5.264;2023-08-07T06:04:47;101327.0;;;15.36;90.72
67430;BME280;54298;52.076;5.264;2023-08-07T06:06:24;101334.0;;;15.05;91.3
67430;BME280;54298;52.076;5.264;2023-08-07T06:09:37;101330.0;;;15.18;91.12
67430;BME280;54298;52.076;5.264;2023-08-07T06:11:13;101337.0;;;15.14;90.97
67430;BME280;54298;52.076;5.264;2023-08-07T06:12:49;101334.0;;;15.1;91.47
67430;BME280;54298;52.076;5.264;2023-08-07T06:14:25;101341.0;;;15.24;91.07
67430;BME280;54298;52.076;5.264;2023-08-07T06:17:37;101338.0;;;15.31;91.25
67430;BME280;54298;52.076;5.264;2023-08-07T06:19:13;101339.0;;;15.42;91.2
67430;BME280;54298;52.076;5.264;2023-08-07T06:20:49;101340.0;;;15.46;91.78
67430;BME280;54298;52.076;5.264;2023-08-07T06:24:02;101341.0;;;15.51;91.62
67430;BME280;54298;52.076;5.264;2023-08-07T06:25:38;101347.0;;;15.63;91.47
67430;BME280;54298;52.076;5.264;2023-08-07T06:27:14;101343.0;;;15.7;91.14
67430;BME280;54298;52.076;5.264;2023-08-07T06:30:26;101344.0;;;15.66;90.78
67430;BME280;54298;52.076;5.264;2023-08-07T06:32:03;101355.0;;;15.72;89.55
67430;BME280;54298;52.076;5.264;2023-08-07T06:33:39;101351.0;;;15.59;89.01
67430;BME280;54298;52.076;5.264;2023-08-07T06:35:16;101350.0;;;15.71;88.41
67430;BME280;54298;52.076;5.264;2023-08-07T06:40:05;101351.0;;;15.89;87.36
67430;BME280;54298;52.076;5.264;2023-08-07T06:41:41;101352.0;;;15.82;88.1
67430;BME280;54298;52.076;5.264;2023-08-07T06:44:54;101355.0;;;15.83;86.7
67430;BME280;54298;52.076;5.264;2023-08-07T06:46:30;101359.0;;;15.66;86.85
67430;BME280;54298;52.076;5.264;2023-08-07T06:48:06;101362.0;;;15.78;86.34
67430;BME280;54298;52.076;5.264;2023-08-07T06:51:18;101355.0;;;15.78;87.66
67430;BME280;54298;52.076;5.264;2023-08-07T06:52:54;101363.0;;;15.93;87.73
67430;BME280;54298;52.076;5.264;2023-08-07T06:54:31;101368.0;;;15.94;86.36
67430;BME280;54298;52.076;5.264;2023-08-07T06:57:43;101367.0;;;15.87;85.71
67430;BME280;54298;52.076;5.264;2023-08-07T06:59:19;101369.0;;;15.99;85.13
67430;BME280;54298;52.076;5.264;2023-08-07T07:00:55;101361.0;;;16.02;84.86
67430;BME280;54298;52.076;5.264;2023-08-07T07:02:31;101373.0;;;16.07;83.7
67430;BME280;54298;52.076;5.264;2023-08-07T07:05:43;101370.0;;;16.22;83.56
67430;BME280;54298;52.076;5.264;2023-08-07T07:07:19;101370.0;;;16.3;82.66
67430;BME280;54298;52.076;5.264;2023-08-07T07:08:56;101374.0;;;16.28;83.07
67430;BME280;54298;52.076;5.264;2023-08-07T07:12:08;101375.0;;;16.3;83.04
67430;BME280;54298;52.076;5.264;2023-08-07T07:13:44;101383.0;;;16.21;82.87
67430;BME280;54298;52.076;5.264;2023-08-07T07:15:20;101405.0;;;16.18;82.2
67430;BME280;54298;52.076;5.264;2023-08-07T07:18:32;101403.0;;;16.03;83.24
67430;BME280;54298;52.076;5.264;2023-08-07T07:20:09;101407.0;;;15.81;83.86
67430;BME280;54298;52.076;5.264;2023-08-07T07:21:45;101411.0;;;15.64;85.98
67430;BME280;54298;52.076;5.264;2023-08-07T07:23:22;101411.0;;;15.78;85.62
67430;BME280;54298;52.076;5.264;2023-08-07T07:26:35;101419.0;;;15.87;85.62
67430;BME280;54298;52.076;5.264;2023-08-07T07:28:11;101415.0;;;15.82;86.38
67430;BME280;54298;52.076;5.264;2023-08-07T07:29:47;101409.0;;;15.68;86.28
67430;BME280;54298;52.076;5.264;2023-08-07T07:32:59;101413.0;;;15.84;86.64
67430;BME280;54298;52.076;5.264;2023-08-07T07:34:35;101417.0;;;15.92;86.43
67430;BME280;54298;52.076;5.264;2023-08-07T07:36:15;101416.0;;;15.89;87.15
67430;BME280;54298;52.076;5.264;2023-08-07T07:39:28;101421.0;;;15.93;87.94
67430;BME280;54298;52.076;5.264;2023-08-07T07:41:04;101420.0;;;15.97;87.8
67430;BME280;54298;52.076;5.264;2023-08-07T07:42:40;101413.0;;;15.94;87.92
67430;BME280;54298;52.076;5.264;2023-08-07T07:45:52;101423.0;;;16.13;87.52
67430;BME280;54298;52.076;5.264;2023-08-07T07:47:28;101427.0;;;16.28;87.28
67430;BME280;54298;52.076;5.264;2023-08-07T07:49:04;101430.0;;;15.87;86.16
67430;BME280;54298;52.076;5.264;2023-08-07T07:50:40;101427.0;;;16.11;86.28
67430;BME280;54298;52.076;5.264;2023-08-07T07:53:53;101427.0;;;16.22;85.1
67430;BME280;54298;52.076;5.264;2023-08-07T07:55:29;101422.0;;;16.39;84.85
67430;BME280;54298;52.076;5.264;2023-08-07T07:57:05;101431.0;;;16.46;85.22
67430;BME280;54298;52.076;5.264;2023-08-07T08:00:18;101430.0;;;16.56;84.68
67430;BME280;54298;52.076;5.264;2023-08-07T08:01:54;101433.0;;;16.65;84.33
67430;BME280;54298;52.076;5.264;2023-08-07T08:03:30;101435.0;;;16.79;82.75
67430;BME280;54298;52.076;5.264;2023-08-07T08:06:43;101446.0;;;16.77;82.3
67430;BME280;54298;52.076;5.264;2023-08-07T08:08:20;101441.0;;;16.77;80.3
67430;BME280;54298;52.076;5.264;2023-08-07T08:09:56;101448.0;;;16.73;78.49
67430;BME280;54298;52.076;5.264;2023-08-07T08:11:32;101447.0;;;16.75;78.37
67430;BME280;54298;52.076;5.264;2023-08-07T08:14:44;101441.0;;;16.71;77.02
67430;BME280;54298;52.076;5.264;2023-08-07T08:16:20;101449.0;;;16.7;76.97
67430;BME280;54298;52.076;5.264;2023-08-07T08:17:56;101446.0;;;16.7;76.09
67430;BME280;54298;52.076;5.264;2023-08-07T08:21:08;101456.0;;;16.81;75.08
67430;BME280;54298;52.076;5.264;2023-08-07T08:22:45;101457.0;;;16.95;76.17
67430;BME280;54298;52.076;5.264;2023-08-07T08:24:21;101459.0;;;16.77;73.92
67430;BME280;54298;52.076;5.264;2023-08-07T08:27:33;101462.0;;;16.7;74.49
67430;BME280;54298;52.076;5.264;2023-08-07T08:29:09;101465.0;;;16.82;75.62
67430;BME280;54298;52.076;5.264;2023-08-07T08:30:45;101473.0;;;16.93;73.8
67430;BME280;54298;52.076;5.264;2023-08-07T08:33:57;101476.0;;;17.0;73.3
67430;BME280;54298;52.076;5.264;2023-08-07T08:35:33;101470.0;;;16.93;73.8
67430;BME280;54298;52.076;5.264;2023-08-07T08:37:09;101466.0;;;16.89;73.58
67430;BME280;54298;52.076;5.264;2023-08-07T08:38:45;101468.0;;;16.84;72.62
67430;BME280;54298;52.076;5.264;2023-08-07T08:41:59;101470.0;;;17.0;72.73
67430;BME280;54298;52.076;5.264;2023-08-07T08:43:35;101470.0;;;17.0;73.41
67430;BME280;54298;52.076;5.264;2023-08-07T08:45:14;101472.0;;;17.0;72.74
67430;BME280;54298;52.076;5.264;2023-08-07T08:48:30;101466.0;;;17.09;71.08
67430;BME280;54298;52.076;5.264;2023-08-07T08:50:11;101476.0;;;17.22;71.88
67430;BME280;54298;52.076;5.264;2023-08-07T08:51:47;101488.0;;;17.2;71.0
67430;BME280;54298;52.076;5.264;2023-08-07T08:53:22;101500.0;;;17.2;69.59
67430;BME280;54298;52.076;5.264;2023-08-07T08:56:36;101486.0;;;17.28;68.66
67430;BME280;54298;52.076;5.264;2023-08-07T08:58:13;101484.0;;;17.25;69.97
67430;BME280;54298;52.076;5.264;2023-08-07T08:59:51;101484.0;;;17.47;68.5
67430;BME280;54298;52.076;5.264;2023-08-07T09:03:06;101490.0;;;17.61;68.8
67430;BME280;54298;52.076;5.264;2023-08-07T09:04:43;101490.0;;;17.43;68.62
67430;BME280;54298;52.076;5.264;2023-08-07T09:06:19;101497.0;;;17.13;68.7
67430;BME280;54298;52.076;5.264;2023-08-07T09:09:33;101501.0;;;17.27;69.74
67430;BME280;54298;52.076;5.264;2023-08-07T09:11:10;101501.0;;;17.39;69.52
67430;BME280;54298;52.076;5.264;2023-08-07T09:12:53;101503.0;;;17.36;69.02
67430;BME280;54298;52.076;5.264;2023-08-07T09:14:32;101501.0;;;17.48;69.27
67430;BME280;54298;52.076;5.264;2023-08-07T09:17:51;101509.0;;;17.3;69.72
67430;BME280;54298;52.076;5.264;2023-08-07T09:19:29;101509.0;;;17.09;68.27
67430;BME280;54298;52.076;5.264;2023-08-07T09:21:05;101520.0;;;17.21;69.66
67430;BME280;54298;52.076;5.264;2023-08-07T09:22:42;101512.0;;;17.06;71.36
67430;BME280;54298;52.076;5.264;2023-08-07T09:26:02;101518.0;;;16.93;72.08
67430;BME280;54298;52.076;5.264;2023-08-07T09:27:40;101524.0;;;16.88;70.09
67430;BME280;54298;52.076;5.264;2023-08-07T09:29:16;101528.0;;;16.84;70.16
67430;BME280;54298;52.076;5.264;2023-08-07T09:32:28;101525.0;;;17.11;69.88
67430;BME280;54298;52.076;5.264;2023-08-07T09:34:04;101528.0;;;17.2;69.05
67430;BME280;54298;52.076;5.264;2023-08-07T09:35:40;101524.0;;;17.09;66.44
67430;BME280;54298;52.076;5.264;2023-08-07T09:37:16;101533.0;;;17.09;67.14
67430;BME280;54298;52.076;5.264;2023-08-07T09:40:29;101537.0;;;17.22;66.3
67430;BME280;54298;52.076;5.264;2023-08-07T09:42:13;101537.0;;;17.29;67.92
67430;BME280;54298;52.076;5.264;2023-08-07T09:43:49;101533.0;;;17.37;67.77
67430;BME280;54298;52.076;5.264;2023-08-07T09:47:11;101528.0;;;17.45;66.69
67430;BME280;54298;52.076;5.264;2023-08-07T09:48:48;101531.0;;;17.57;66.53
67430;BME280;54298;52.076;5.264;2023-08-07T09:50:24;101530.0;;;17.72;67.3
67430;BME280;54298;52.076;5.264;2023-08-07T09:52:05;101530.0;;;17.59;65.73
67430;BME280;54298;52.076;5.264;2023-08-07T09:55:18;101530.0;;;17.72;65.7
67430;BME280;54298;52.076;5.264;2023-08-07T09:56:55;101534.0;;;17.7;66.45
67430;BME280;54298;52.076;5.264;2023-08-07T09:58:32;101536.0;;;17.82;66.44
67430;BME280;54298;52.076;5.264;2023-08-07T10:01:47;101536.0;;;17.78;65.34
67430;BME280;54298;52.076;5.264;2023-08-07T10:03:24;101535.0;;;17.77;65.47
67430;BME280;54298;52.076;5.264;2023-08-07T10:05:01;101545.0;;;17.68;66.7
67430;BME280;54298;52.076;5.264;2023-08-07T10:06:37;101560.0;;;17.2;69.77
67430;BME280;54298;52.076;5.264;2023-08-07T10:09:49;101555.0;;;16.91;72.0
67430;BME280;54298;52.076;5.264;2023-08-07T10:11:27;101562.0;;;16.96;74.28
67430;BME280;54298;52.076;5.264;2023-08-07T10:13:04;101561.0;;;17.02;75.62
67430;BME280;54298;52.076;5.264;2023-08-07T10:16:18;101565.0;;;17.11;76.86
67430;BME280;54298;52.076;5.264;2023-08-07T10:17:54;101571.0;;;17.05;77.55
67430;BME280;54298;52.076;5.264;2023-08-07T10:19:30;101569.0;;;17.07;75.69
67430;BME280;54298;52.076;5.264;2023-08-07T10:22:44;101571.0;;;16.93;75.62
67430;BME280;54298;52.076;5.264;2023-08-07T10:24:22;101563.0;;;17.02;76.17
67430;BME280;54298;52.076;5.264;2023-08-07T10:26:00;101567.0;;;17.04;75.42
67430;BME280;54298;52.076;5.264;2023-08-07T10:27:40;101564.0;;;17.09;76.11
67430;BME280;54298;52.076;5.264;2023-08-07T10:30:57;101558.0;;;17.13;76.19
67430;BME280;54298;52.076;5.264;2023-08-07T10:32:34;101556.0;;;17.2;73.86
67430;BME280;54298;52.076;5.264;2023-08-07T10:34:11;101556.0;;;17.36;72.62
67430;BME280;54298;52.076;5.264;2023-08-07T10:37:41;101549.0;;;17.52;73.3
67430;BME280;54298;52.076;5.264;2023-08-07T10:39:17;101556.0;;;17.61;73.66
67430;BME280;54298;52.076;5.264;2023-08-07T10:40:59;101553.0;;;17.7;69.64
67430;BME280;54298;52.076;5.264;2023-08-07T10:42:51;101548.0;;;17.8;67.64
67430;BME280;54298;52.076;5.264;2023-08-07T10:45:22;101561.0;;;17.68;67.58
67430;BME280;54298;52.076;5.264;2023-08-07T10:47:00;101560.0;;;17.97;67.88
67430;BME280;54298;52.076;5.264;2023-08-07T10:48:39;101560.0;;;17.91;66.52
67430;BME280;54298;52.076;5.264;2023-08-07T10:51:52;101559.0;;;17.91;66.08
67430;BME280;54298;52.076;5.264;2023-08-07T10:53:29;101565.0;;;18.07;65.69
67430;BME280;54298;52.076;5.264;2023-08-07T10:55:13;101575.0;;;18.14;65.6
67430;BME280;54298;52.076;5.264;2023-08-07T10:56:52;101572.0;;;17.93;66.16
67430;BME280;54298;52.076;5.264;2023-08-07T11:00:12;101580.0;;;17.93;63.81
67430;BME280;54298;52.076;5.264;2023-08-07T11:01:54;101580.0;;;17.89;64.3
67430;BME280;54298;52.076;5.264;2023-08-07T11:03:35;101581.0;;;17.96;64.08
67430;BME280;54298;52.076;5.264;2023-08-07T11:08:24;101588.0;;;18.05;65.03
67430;BME280;54298;52.076;5.264;2023-08-07T11:10:00;101590.0;;;17.93;63.68
67430;BME280;54298;52.076;5.264;2023-08-07T11:11:37;101589.0;;;18.09;64.47